»·PEaware :: N13M KBUR-KLAS

N13M :: KBUR-KLAS

FLIGHT INFORMATION

Flight Status: Arrived
Operator: Privately registered:
United States
More flights under this callsign
Pilot: Zhuojun Y. (28503)
Aircraft: SOCATA TBM-900
(TBM9)
More flights by this aircraft type
Origin: KBUR Bob Hope-Burbank
United States
Destination: KLAS McCarran Intl
United States
More flights between these airports :: More routes between these airports
Route: VNY3 DAG CRESO4
File this flight plan on PilotEdge
Remarks: I5 RATING
Altitude:
(Current/Filed)
11,000ft
Speed:
(Current/Filed)
220kts
Departed: 13-Apr-20 09:42 PM
Arrived: 13-Apr-20 10:43 PM
Distance/Time
Traveled:
193nm/1:01
Distance/Time
To Go:
Arrived

Flight Plot

Page will automatically refresh every two minutes.

Flight plan parsing failed; only flown route is shown


Map Options




Map Legend


Flown Route
Filed Route
Departure Airport
Arrival Airport
Navaid (VOR, NDB)
Fix

Horizontal Profiles

Position Reports

Time Latitude Longitude Heading Altitude Ground
Speed
13-Apr-20 21:34 34.200215 -118.358844 258 737ft 0kts
13-Apr-20 21:35 34.200215 -118.358844 258 737ft 0kts
13-Apr-20 21:36 34.200215 -118.358844 258 737ft 0kts
13-Apr-20 21:37 34.201010 -118.358502 347 737ft 18kts
13-Apr-20 21:38 34.207835 -118.360369 347 737ft 24kts
13-Apr-20 21:39 34.211477 -118.361244 26 737ft 0kts
13-Apr-20 21:41 34.211215 -118.360226 156 737ft 11kts
13-Apr-20 21:42 34.203523 -118.357983 166 742ft 103kts
13-Apr-20 21:43 34.174804 -118.362025 200 2075ft 112kts
13-Apr-20 21:44 34.151649 -118.388407 245 3385ft 116kts
13-Apr-20 21:45 34.174925 -118.412422 342 5250ft 140kts
13-Apr-20 21:46 34.213937 -118.427683 346 7412ft 152kts
13-Apr-20 21:47 34.256356 -118.436024 351 9492ft 160kts
13-Apr-20 21:48 34.307112 -118.445798 351 10830ft 205kts
13-Apr-20 21:49 34.371294 -118.457868 357 10814ft 246kts
13-Apr-20 21:50 34.419888 -118.401821 52 10818ft 252kts
13-Apr-20 21:51 34.462645 -118.333727 52 10817ft 254kts
13-Apr-20 21:52 34.505514 -118.265389 52 10826ft 254kts
13-Apr-20 21:53 34.548232 -118.197123 52 10826ft 254kts
13-Apr-20 21:54 34.591234 -118.128260 52 10826ft 254kts
13-Apr-20 21:55 34.632036 -118.058244 76 10796ft 254kts
13-Apr-20 21:56 34.641370 -117.973245 82 10826ft 254kts
13-Apr-20 21:57 34.650668 -117.887898 82 10826ft 254kts
13-Apr-20 21:58 34.659941 -117.802381 82 10826ft 254kts
13-Apr-20 21:59 34.675729 -117.718347 72 10826ft 254kts
13-Apr-20 21:59 34.693284 -117.650052 72 10826ft 254kts
13-Apr-20 22:01 34.717627 -117.554918 72 10826ft 254kts
13-Apr-20 22:02 34.738771 -117.471997 72 10826ft 254kts
13-Apr-20 22:02 34.756248 -117.403266 72 10826ft 254kts
13-Apr-20 22:03 34.777046 -117.321229 72 10826ft 254kts
13-Apr-20 22:05 34.785890 -117.286273 72 10826ft 254kts
13-Apr-20 22:05 34.817212 -117.162072 72 10826ft 254kts
13-Apr-20 22:06 34.839361 -117.073874 72 10828ft 258kts
13-Apr-20 22:07 34.860489 -116.989476 72 10826ft 260kts
13-Apr-20 22:08 34.881610 -116.904826 72 10826ft 260kts
13-Apr-20 22:09 34.902628 -116.820302 72 10826ft 260kts
13-Apr-20 22:10 34.923475 -116.736193 72 10826ft 260kts
13-Apr-20 22:11 34.944340 -116.651735 72 10826ft 260kts
13-Apr-20 22:12 34.966955 -116.567922 61 10850ft 259kts
13-Apr-20 22:13 35.001040 -116.491451 61 10853ft 260kts
13-Apr-20 22:14 35.019994 -116.448787 61 10853ft 260kts
13-Apr-20 22:15 35.050265 -116.380523 61 10853ft 260kts
13-Apr-20 22:16 35.104783 -116.257253 61 10853ft 260kts
13-Apr-20 22:17 35.139256 -116.179069 61 10853ft 260kts
13-Apr-20 22:18 35.173538 -116.101145 61 10853ft 260kts
13-Apr-20 22:19 35.207850 -116.022971 61 10853ft 260kts
13-Apr-20 22:20 35.242065 -115.944836 61 10844ft 260kts
13-Apr-20 22:21 35.276220 -115.866662 61 10844ft 260kts
13-Apr-20 22:22 35.310361 -115.788549 59 10843ft 260kts
13-Apr-20 22:23 35.358810 -115.722952 47 10844ft 260kts
13-Apr-20 22:24 35.407875 -115.657517 47 10844ft 260kts
13-Apr-20 22:25 35.456830 -115.592075 47 10844ft 260kts
13-Apr-20 22:26 35.505790 -115.526498 47 10844ft 260kts
13-Apr-20 22:27 35.556775 -115.458129 47 9929ft 277kts
13-Apr-20 22:28 35.606964 -115.390686 47 9843ft 263kts
13-Apr-20 22:29 35.656275 -115.324293 47 9844ft 260kts
13-Apr-20 22:30 35.705061 -115.258480 47 9844ft 260kts
13-Apr-20 22:31 35.753897 -115.192477 47 8810ft 256kts
13-Apr-20 22:32 35.809683 -115.183727 296 7131ft 250kts
13-Apr-20 22:33 35.833898 -115.258207 291 6839ft 218kts
13-Apr-20 22:34 35.878826 -115.292230 2 6250ft 231kts
13-Apr-20 22:35 35.930573 -115.265822 321 5834ft 216kts
13-Apr-20 22:36 35.907671 -115.303465 143 5840ft 210kts
13-Apr-20 22:37 35.928719 -115.254095 21 5812ft 211kts
13-Apr-20 22:38 35.978240 -115.226033 24 4593ft 171kts
13-Apr-20 22:39 36.018624 -115.202843 24 3669ft 131kts
13-Apr-20 22:40 36.047268 -115.186461 24 2946ft 102kts
13-Apr-20 22:41 36.070585 -115.173051 25 2338ft 88kts
13-Apr-20 22:42 36.084601 -115.165076 25 2143ft 14kts
13-Apr-20 22:43 36.088113 -115.163093 20 2129ft 10kts
13-Apr-20 22:44 36.089548 -115.163900 294 2129ft 7kts
13-Apr-20 22:45 36.089440 -115.166151 269 2136ft 7kts
13-Apr-20 22:46 36.089434 -115.166856 269 2139ft 0kts
13-Apr-20 22:47 36.089434 -115.166856 269 2139ft 0kts
13-Apr-20 22:48 36.089432 -115.166968 269 2140ft 0kts

Navigation Log

Ident Type
Flight plan parsing failed, navigation log unavailable